sensor_id;sensor_type;location;lat;lon;timestamp;temperature;humidity
40374;DHT22;26079;45.958;12.492;2023-04-24T00:00:46;14.30;99.90
40374;DHT22;26079;45.958;12.492;2023-04-24T00:03:12;14.30;99.90
40374;DHT22;26079;45.958;12.492;2023-04-24T00:05:38;14.30;99.90
40374;DHT22;26079;45.958;12.492;2023-04-24T00:08:05;14.20;99.90
40374;DHT22;26079;45.958;12.492;2023-04-24T00:10:31;14.10;99.90
40374;DHT22;26079;45.958;12.492;2023-04-24T00:12:57;14.00;99.90
40374;DHT22;26079;45.958;12.492;2023-04-24T00:15:23;13.90;99.90
40374;DHT22;26079;45.958;12.492;2023-04-24T00:17:48;13.90;99.90
40374;DHT22;26079;45.958;12.492;2023-04-24T00:20:14;13.80;99.90
40374;DHT22;26079;45.958;12.492;2023-04-24T00:22:40;13.80;99.90
40374;DHT22;26079;45.958;12.492;2023-04-24T00:25:06;13.80;99.90
40374;DHT22;26079;45.958;12.492;2023-04-24T00:27:32;13.80;99.90
40374;DHT22;26079;45.958;12.492;2023-04-24T00:29:57;13.80;99.90
40374;DHT22;26079;45.958;12.492;2023-04-24T00:32:23;13.80;99.90
40374;DHT22;26079;45.958;12.492;2023-04-24T00:34:49;13.70;99.90
40374;DHT22;26079;45.958;12.492;2023-04-24T00:37:15;13.70;99.90
40374;DHT22;26079;45.958;12.492;2023-04-24T00:39:41;13.70;99.90
40374;DHT22;26079;45.958;12.492;2023-04-24T00:42:06;13.70;99.90
40374;DHT22;26079;45.958;12.492;2023-04-24T00:44:35;13.70;99.90
40374;DHT22;26079;45.958;12.492;2023-04-24T00:47:01;13.80;99.90
40374;DHT22;26079;45.958;12.492;2023-04-24T00:49:27;13.80;99.90
40374;DHT22;26079;45.958;12.492;2023-04-24T00:51:52;13.80;99.90
40374;DHT22;26079;45.958;12.492;2023-04-24T00:54:19;13.80;99.90
40374;DHT22;26079;45.958;12.492;2023-04-24T00:56:45;13.70;99.90
40374;DHT22;26079;45.958;12.492;2023-04-24T00:59:16;13.70;99.90
40374;DHT22;26079;45.958;12.492;2023-04-24T01:01:43;13.70;99.90
40374;DHT22;26079;45.958;12.492;2023-04-24T01:04:11;13.70;99.90
40374;DHT22;26079;45.958;12.492;2023-04-24T01:06:39;13.70;99.90
40374;DHT22;26079;45.958;12.492;2023-04-24T01:09:05;13.70;99.90
40374;DHT22;26079;45.958;12.492;2023-04-24T01:11:31;13.70;99.90
40374;DHT22;26079;45.958;12.492;2023-04-24T01:13:56;13.70;99.90
40374;DHT22;26079;45.958;12.492;2023-04-24T01:16:22;13.70;99.90
40374;DHT22;26079;45.958;12.492;2023-04-24T01:18:48;13.60;99.90
40374;DHT22;26079;45.958;12.492;2023-04-24T01:21:15;13.60;99.90
40374;DHT22;26079;45.958;12.492;2023-04-24T01:23:44;13.60;99.90
40374;DHT22;26079;45.958;12.492;2023-04-24T01:26:10;13.60;99.90
40374;DHT22;26079;45.958;12.492;2023-04-24T01:28:37;13.60;99.90
40374;DHT22;26079;45.958;12.492;2023-04-24T01:31:03;13.60;99.90
40374;DHT22;26079;45.958;12.492;2023-04-24T01:33:29;13.60;99.90
40374;DHT22;26079;45.958;12.492;2023-04-24T01:35:54;13.60;99.90
40374;DHT22;26079;45.958;12.492;2023-04-24T01:38:20;13.60;99.90
40374;DHT22;26079;45.958;12.492;2023-04-24T01:40:46;13.60;99.90
40374;DHT22;26079;45.958;12.492;2023-04-24T01:43:13;13.60;99.90
40374;DHT22;26079;45.958;12.492;2023-04-24T01:45:38;13.60;99.90
40374;DHT22;26079;45.958;12.492;2023-04-24T01:48:04;13.70;99.90
40374;DHT22;26079;45.958;12.492;2023-04-24T01:50:30;13.80;99.80
40374;DHT22;26079;45.958;12.492;2023-04-24T01:52:56;13.80;99.90
40374;DHT22;26079;45.958;12.492;2023-04-24T01:55:22;13.80;99.30
40374;DHT22;26079;45.958;12.492;2023-04-24T01:57:48;13.90;98.10
40374;DHT22;26079;45.958;12.492;2023-04-24T02:00:14;13.90;98.60
40374;DHT22;26079;45.958;12.492;2023-04-24T02:02:40;13.90;98.10
40374;DHT22;26079;45.958;12.492;2023-04-24T02:05:07;13.90;98.20
40374;DHT22;26079;45.958;12.492;2023-04-24T02:07:33;13.90;97.80
40374;DHT22;26079;45.958;12.492;2023-04-24T02:09:59;13.90;98.30
40374;DHT22;26079;45.958;12.492;2023-04-24T02:12:25;13.90;97.80
40374;DHT22;26079;45.958;12.492;2023-04-24T02:14:50;13.90;98.10
40374;DHT22;26079;45.958;12.492;2023-04-24T02:17:16;13.90;98.00
40374;DHT22;26079;45.958;12.492;2023-04-24T02:19:42;13.90;97.50
40374;DHT22;26079;45.958;12.492;2023-04-24T02:22:08;13.90;98.00
40374;DHT22;26079;45.958;12.492;2023-04-24T02:24:33;13.90;97.50
40374;DHT22;26079;45.958;12.492;2023-04-24T02:26:59;13.90;97.00
40374;DHT22;26079;45.958;12.492;2023-04-24T02:29:25;13.90;97.30
40374;DHT22;26079;45.958;12.492;2023-04-24T02:31:51;13.90;96.30
40374;DHT22;26079;45.958;12.492;2023-04-24T02:34:16;14.00;96.60
40374;DHT22;26079;45.958;12.492;2023-04-24T02:36:42;14.00;96.20
40374;DHT22;26079;45.958;12.492;2023-04-24T02:39:08;14.00;96.60
40374;DHT22;26079;45.958;12.492;2023-04-24T02:41:34;14.00;96.50
40374;DHT22;26079;45.958;12.492;2023-04-24T02:43:59;14.00;96.80
40374;DHT22;26079;45.958;12.492;2023-04-24T02:46:26;14.00;96.70
40374;DHT22;26079;45.958;12.492;2023-04-24T02:48:51;14.00;96.70
40374;DHT22;26079;45.958;12.492;2023-04-24T02:51:17;14.00;95.40
40374;DHT22;26079;45.958;12.492;2023-04-24T02:53:43;14.10;95.10
40374;DHT22;26079;45.958;12.492;2023-04-24T02:56:09;14.10;95.50
40374;DHT22;26079;45.958;12.492;2023-04-24T02:58:37;14.20;94.60
40374;DHT22;26079;45.958;12.492;2023-04-24T03:01:03;14.20;94.00
40374;DHT22;26079;45.958;12.492;2023-04-24T03:03:29;14.20;94.00
40374;DHT22;26079;45.958;12.492;2023-04-24T03:05:54;14.30;94.50
40374;DHT22;26079;45.958;12.492;2023-04-24T03:08:22;14.30;93.10
40374;DHT22;26079;45.958;12.492;2023-04-24T03:10:48;14.30;94.20
40374;DHT22;26079;45.958;12.492;2023-04-24T03:13:13;14.30;92.70
40374;DHT22;26079;45.958;12.492;2023-04-24T03:15:40;14.30;93.60
40374;DHT22;26079;45.958;12.492;2023-04-24T03:18:06;14.30;93.70
40374;DHT22;26079;45.958;12.492;2023-04-24T03:20:31;14.30;94.10
40374;DHT22;26079;45.958;12.492;2023-04-24T03:22:57;14.30;93.30
40374;DHT22;26079;45.958;12.492;2023-04-24T03:25:22;14.30;93.00
40374;DHT22;26079;45.958;12.492;2023-04-24T03:27:48;14.30;93.20
40374;DHT22;26079;45.958;12.492;2023-04-24T03:30:14;14.30;93.50
40374;DHT22;26079;45.958;12.492;2023-04-24T03:32:39;14.30;94.20
40374;DHT22;26079;45.958;12.492;2023-04-24T03:35:06;14.20;94.90
40374;DHT22;26079;45.958;12.492;2023-04-24T03:37:33;14.20;95.00
40374;DHT22;26079;45.958;12.492;2023-04-24T03:39:59;14.20;95.50
40374;DHT22;26079;45.958;12.492;2023-04-24T03:42:25;14.20;94.90
40374;DHT22;26079;45.958;12.492;2023-04-24T03:44:50;14.20;95.60
40374;DHT22;26079;45.958;12.492;2023-04-24T03:47:16;14.20;94.70
40374;DHT22;26079;45.958;12.492;2023-04-24T03:49:41;14.30;95.00
40374;DHT22;26079;45.958;12.492;2023-04-24T03:52:07;14.30;94.90
40374;DHT22;26079;45.958;12.492;2023-04-24T03:54:33;14.30;95.30
40374;DHT22;26079;45.958;12.492;2023-04-24T03:56:58;14.30;95.50
40374;DHT22;26079;45.958;12.492;2023-04-24T03:59:24;14.30;95.80
40374;DHT22;26079;45.958;12.492;2023-04-24T04:01:50;14.20;95.90
40374;DHT22;26079;45.958;12.492;2023-04-24T04:04:15;14.20;95.80
40374;DHT22;26079;45.958;12.492;2023-04-24T04:06:41;14.20;96.50
40374;DHT22;26079;45.958;12.492;2023-04-24T04:09:07;14.30;95.70
40374;DHT22;26079;45.958;12.492;2023-04-24T04:11:34;14.30;95.60
40374;DHT22;26079;45.958;12.492;2023-04-24T04:14:00;14.30;95.50
40374;DHT22;26079;45.958;12.492;2023-04-24T04:16:26;14.30;95.10
40374;DHT22;26079;45.958;12.492;2023-04-24T04:18:52;14.30;95.50
40374;DHT22;26079;45.958;12.492;2023-04-24T04:21:18;14.30;94.90
40374;DHT22;26079;45.958;12.492;2023-04-24T04:23:44;14.30;94.80
40374;DHT22;26079;45.958;12.492;2023-04-24T04:26:11;14.40;94.10
40374;DHT22;26079;45.958;12.492;2023-04-24T04:28:38;14.50;93.70
40374;DHT22;26079;45.958;12.492;2023-04-24T04:31:04;14.50;93.50
40374;DHT22;26079;45.958;12.492;2023-04-24T04:33:30;14.50;93.50
40374;DHT22;26079;45.958;12.492;2023-04-24T04:35:57;14.50;93.60
40374;DHT22;26079;45.958;12.492;2023-04-24T04:38:23;14.50;93.60
40374;DHT22;26079;45.958;12.492;2023-04-24T04:40:48;14.50;93.90
40374;DHT22;26079;45.958;12.492;2023-04-24T04:43:15;14.50;93.70
40374;DHT22;26079;45.958;12.492;2023-04-24T04:45:41;14.50;94.10
40374;DHT22;26079;45.958;12.492;2023-04-24T04:48:09;14.50;93.30
40374;DHT22;26079;45.958;12.492;2023-04-24T04:50:37;14.50;93.80
40374;DHT22;26079;45.958;12.492;2023-04-24T04:53:03;14.50;93.70
40374;DHT22;26079;45.958;12.492;2023-04-24T04:55:29;14.50;94.10
40374;DHT22;26079;45.958;12.492;2023-04-24T04:57:55;14.50;93.60
40374;DHT22;26079;45.958;12.492;2023-04-24T05:00:21;14.60;93.80
40374;DHT22;26079;45.958;12.492;2023-04-24T05:02:47;14.60;93.60
40374;DHT22;26079;45.958;12.492;2023-04-24T05:05:12;14.60;93.60
40374;DHT22;26079;45.958;12.492;2023-04-24T05:07:38;14.60;93.70
40374;DHT22;26079;45.958;12.492;2023-04-24T05:10:04;14.60;93.50
40374;DHT22;26079;45.958;12.492;2023-04-24T05:12:30;14.60;93.70
40374;DHT22;26079;45.958;12.492;2023-04-24T05:14:55;14.50;93.90
40374;DHT22;26079;45.958;12.492;2023-04-24T05:17:21;14.50;95.10
40374;DHT22;26079;45.958;12.492;2023-04-24T05:19:47;14.40;95.50
40374;DHT22;26079;45.958;12.492;2023-04-24T05:22:13;14.20;96.80
40374;DHT22;26079;45.958;12.492;2023-04-24T05:24:39;14.00;98.60
40374;DHT22;26079;45.958;12.492;2023-04-24T05:27:05;13.80;99.90
40374;DHT22;26079;45.958;12.492;2023-04-24T05:29:31;13.60;99.90
40374;DHT22;26079;45.958;12.492;2023-04-24T05:31:58;13.50;99.90
40374;DHT22;26079;45.958;12.492;2023-04-24T05:34:25;13.40;99.90
40374;DHT22;26079;45.958;12.492;2023-04-24T05:36:51;13.30;99.90
40374;DHT22;26079;45.958;12.492;2023-04-24T05:39:16;13.30;99.90
40374;DHT22;26079;45.958;12.492;2023-04-24T05:41:42;13.20;99.90
40374;DHT22;26079;45.958;12.492;2023-04-24T05:44:08;13.20;99.90
40374;DHT22;26079;45.958;12.492;2023-04-24T05:46:34;13.20;99.90
40374;DHT22;26079;45.958;12.492;2023-04-24T05:49:00;13.20;99.90
40374;DHT22;26079;45.958;12.492;2023-04-24T05:51:26;13.10;99.90
40374;DHT22;26079;45.958;12.492;2023-04-24T05:53:51;13.20;99.90
40374;DHT22;26079;45.958;12.492;2023-04-24T05:56:18;13.10;99.90
40374;DHT22;26079;45.958;12.492;2023-04-24T05:58:44;13.10;99.90
40374;DHT22;26079;45.958;12.492;2023-04-24T06:01:10;13.10;99.90
40374;DHT22;26079;45.958;12.492;2023-04-24T06:03:38;13.10;99.90
40374;DHT22;26079;45.958;12.492;2023-04-24T06:06:05;13.10;99.90
40374;DHT22;26079;45.958;12.492;2023-04-24T06:08:31;13.10;99.90
40374;DHT22;26079;45.958;12.492;2023-04-24T06:10:57;13.10;99.90
40374;DHT22;26079;45.958;12.492;2023-04-24T06:13:22;13.00;99.90
40374;DHT22;26079;45.958;12.492;2023-04-24T06:15:48;13.00;99.90
40374;DHT22;26079;45.958;12.492;2023-04-24T06:18:14;13.00;99.90
40374;DHT22;26079;45.958;12.492;2023-04-24T06:20:39;13.00;99.90
40374;DHT22;26079;45.958;12.492;2023-04-24T06:23:05;13.10;99.90
40374;DHT22;26079;45.958;12.492;2023-04-24T06:25:31;13.10;99.90
40374;DHT22;26079;45.958;12.492;2023-04-24T06:27:57;13.10;99.90
40374;DHT22;26079;45.958;12.492;2023-04-24T06:30:23;13.10;99.90
40374;DHT22;26079;45.958;12.492;2023-04-24T06:32:48;13.00;99.90
40374;DHT22;26079;45.958;12.492;2023-04-24T06:35:14;13.00;99.90
40374;DHT22;26079;45.958;12.492;2023-04-24T06:37:41;13.00;99.90
40374;DHT22;26079;45.958;12.492;2023-04-24T06:40:07;13.00;99.90
40374;DHT22;26079;45.958;12.492;2023-04-24T06:42:33;13.00;99.90
40374;DHT22;26079;45.958;12.492;2023-04-24T06:45:00;13.00;99.90
40374;DHT22;26079;45.958;12.492;2023-04-24T06:47:26;13.00;99.90
40374;DHT22;26079;45.958;12.492;2023-04-24T06:49:53;12.90;99.90
40374;DHT22;26079;45.958;12.492;2023-04-24T06:52:19;12.90;99.90
40374;DHT22;26079;45.958;12.492;2023-04-24T06:54:45;12.90;99.90
40374;DHT22;26079;45.958;12.492;2023-04-24T06:57:10;12.90;99.90
40374;DHT22;26079;45.958;12.492;2023-04-24T06:59:37;12.80;99.90
40374;DHT22;26079;45.958;12.492;2023-04-24T07:02:02;12.90;99.90
40374;DHT22;26079;45.958;12.492;2023-04-24T07:04:28;12.80;99.90
40374;DHT22;26079;45.958;12.492;2023-04-24T07:06:54;12.80;99.90
40374;DHT22;26079;45.958;12.492;2023-04-24T07:09:22;12.80;99.90
40374;DHT22;26079;45.958;12.492;2023-04-24T07:11:49;12.80;99.90
40374;DHT22;26079;45.958;12.492;2023-04-24T07:14:15;12.80;99.90
40374;DHT22;26079;45.958;12.492;2023-04-24T07:16:42;12.80;99.90
40374;DHT22;26079;45.958;12.492;2023-04-24T07:19:08;12.80;99.90
40374;DHT22;26079;45.958;12.492;2023-04-24T07:21:33;12.80;99.90
40374;DHT22;26079;45.958;12.492;2023-04-24T07:23:59;12.80;99.90
40374;DHT22;26079;45.958;12.492;2023-04-24T07:26:26;12.90;99.90
40374;DHT22;26079;45.958;12.492;2023-04-24T07:28:52;12.90;99.90
40374;DHT22;26079;45.958;12.492;2023-04-24T07:31:18;12.90;99.90
40374;DHT22;26079;45.958;12.492;2023-04-24T07:33:43;12.90;99.90
40374;DHT22;26079;45.958;12.492;2023-04-24T07:36:09;12.90;99.90
40374;DHT22;26079;45.958;12.492;2023-04-24T07:38:41;12.90;99.90
40374;DHT22;26079;45.958;12.492;2023-04-24T07:41:07;12.90;99.90
40374;DHT22;26079;45.958;12.492;2023-04-24T07:43:33;12.90;99.90
40374;DHT22;26079;45.958;12.492;2023-04-24T07:45:59;12.90;99.90
40374;DHT22;26079;45.958;12.492;2023-04-24T07:48:25;12.90;99.90
40374;DHT22;26079;45.958;12.492;2023-04-24T07:50:52;12.90;99.90
40374;DHT22;26079;45.958;12.492;2023-04-24T07:53:17;13.00;99.90
40374;DHT22;26079;45.958;12.492;2023-04-24T07:55:43;13.00;99.90
40374;DHT22;26079;45.958;12.492;2023-04-24T07:58:09;12.90;99.90
40374;DHT22;26079;45.958;12.492;2023-04-24T08:00:34;13.00;99.90
40374;DHT22;26079;45.958;12.492;2023-04-24T08:03:00;13.00;99.90
40374;DHT22;26079;45.958;12.492;2023-04-24T08:05:26;13.10;99.90
40374;DHT22;26079;45.958;12.492;2023-04-24T08:07:54;13.10;99.90
40374;DHT22;26079;45.958;12.492;2023-04-24T08:10:21;13.20;99.90
40374;DHT22;26079;45.958;12.492;2023-04-24T08:12:46;13.30;99.90
40374;DHT22;26079;45.958;12.492;2023-04-24T08:15:12;13.30;99.90
40374;DHT22;26079;45.958;12.492;2023-04-24T08:17:38;13.40;99.90
40374;DHT22;26079;45.958;12.492;2023-04-24T08:20:04;13.40;99.90
40374;DHT22;26079;45.958;12.492;2023-04-24T08:22:31;13.50;99.90
40374;DHT22;26079;45.958;12.492;2023-04-24T08:24:59;13.50;99.90
40374;DHT22;26079;45.958;12.492;2023-04-24T08:27:26;13.60;99.90
40374;DHT22;26079;45.958;12.492;2023-04-24T08:29:53;13.60;99.90
40374;DHT22;26079;45.958;12.492;2023-04-24T08:32:19;13.60;99.90
40374;DHT22;26079;45.958;12.492;2023-04-24T08:34:45;13.50;99.90
40374;DHT22;26079;45.958;12.492;2023-04-24T08:37:11;13.50;99.90
40374;DHT22;26079;45.958;12.492;2023-04-24T08:39:37;13.50;99.90
40374;DHT22;26079;45.958;12.492;2023-04-24T08:42:04;13.50;99.90
40374;DHT22;26079;45.958;12.492;2023-04-24T08:44:32;13.40;99.90
40374;DHT22;26079;45.958;12.492;2023-04-24T08:46:58;13.40;99.90
40374;DHT22;26079;45.958;12.492;2023-04-24T08:49:24;13.40;99.90
40374;DHT22;26079;45.958;12.492;2023-04-24T08:51:52;13.40;99.90
40374;DHT22;26079;45.958;12.492;2023-04-24T08:54:18;13.40;99.90
40374;DHT22;26079;45.958;12.492;2023-04-24T08:56:46;13.40;99.90
40374;DHT22;26079;45.958;12.492;2023-04-24T08:59:14;13.40;99.90
40374;DHT22;26079;45.958;12.492;2023-04-24T09:01:40;13.50;99.90
40374;DHT22;26079;45.958;12.492;2023-04-24T09:04:08;13.50;99.90
40374;DHT22;26079;45.958;12.492;2023-04-24T09:06:38;13.50;99.90
40374;DHT22;26079;45.958;12.492;2023-04-24T09:09:04;13.40;99.90
40374;DHT22;26079;45.958;12.492;2023-04-24T09:11:31;13.40;99.90
40374;DHT22;26079;45.958;12.492;2023-04-24T09:13:58;13.40;99.90
40374;DHT22;26079;45.958;12.492;2023-04-24T09:16:26;13.30;99.90
40374;DHT22;26079;45.958;12.492;2023-04-24T09:18:52;13.20;99.90
40374;DHT22;26079;45.958;12.492;2023-04-24T09:21:21;13.00;99.90
40374;DHT22;26079;45.958;12.492;2023-04-24T09:23:58;12.80;99.90
40374;DHT22;26079;45.958;12.492;2023-04-24T09:26:25;12.60;99.90
40374;DHT22;26079;45.958;12.492;2023-04-24T09:28:50;12.50;99.90
40374;DHT22;26079;45.958;12.492;2023-04-24T09:31:19;12.40;99.90
40374;DHT22;26079;45.958;12.492;2023-04-24T09:36:33;12.20;99.90
40374;DHT22;26079;45.958;12.492;2023-04-24T09:39:00;12.20;99.90
40374;DHT22;26079;45.958;12.492;2023-04-24T09:41:26;12.10;99.90
40374;DHT22;26079;45.958;12.492;2023-04-24T09:43:56;12.10;99.90
40374;DHT22;26079;45.958;12.492;2023-04-24T09:46:32;12.10;99.90
40374;DHT22;26079;45.958;12.492;2023-04-24T09:49:13;12.10;99.90
40374;DHT22;26079;45.958;12.492;2023-04-24T09:51:41;12.10;99.90
40374;DHT22;26079;45.958;12.492;2023-04-24T09:54:18;12.10;99.90
40374;DHT22;26079;45.958;12.492;2023-04-24T09:56:47;12.20;99.90
40374;DHT22;26079;45.958;12.492;2023-04-24T09:59:13;12.30;99.90
40374;DHT22;26079;45.958;12.492;2023-04-24T10:01:39;12.30;99.90
40374;DHT22;26079;45.958;12.492;2023-04-24T10:04:24;12.30;99.90
40374;DHT22;26079;45.958;12.492;2023-04-24T10:06:52;12.20;99.90
40374;DHT22;26079;45.958;12.492;2023-04-24T10:09:20;12.20;99.90
40374;DHT22;26079;45.958;12.492;2023-04-24T10:11:48;12.10;99.90
40374;DHT22;26079;45.958;12.492;2023-04-24T10:14:18;12.00;99.90
40374;DHT22;26079;45.958;12.492;2023-04-24T10:16:46;12.00;99.90
40374;DHT22;26079;45.958;12.492;2023-04-24T10:19:16;12.00;99.90
40374;DHT22;26079;45.958;12.492;2023-04-24T10:21:44;12.00;99.90
40374;DHT22;26079;45.958;12.492;2023-04-24T10:24:14;12.00;99.90
40374;DHT22;26079;45.958;12.492;2023-04-24T10:26:41;12.00;99.90
40374;DHT22;26079;45.958;12.492;2023-04-24T10:29:07;12.00;99.90
40374;DHT22;26079;45.958;12.492;2023-04-24T10:31:36;12.20;99.90
40374;DHT22;26079;45.958;12.492;2023-04-24T10:34:05;12.10;99.90
40374;DHT22;26079;45.958;12.492;2023-04-24T10:36:32;12.00;99.90
40374;DHT22;26079;45.958;12.492;2023-04-24T10:39:01;12.00;99.90
40374;DHT22;26079;45.958;12.492;2023-04-24T10:41:27;12.00;99.90
40374;DHT22;26079;45.958;12.492;2023-04-24T10:44:09;12.00;99.90
40374;DHT22;26079;45.958;12.492;2023-04-24T10:46:36;12.00;99.90
40374;DHT22;26079;45.958;12.492;2023-04-24T10:49:06;12.10;99.90
40374;DHT22;26079;45.958;12.492;2023-04-24T10:52:03;12.20;99.90
40374;DHT22;26079;45.958;12.492;2023-04-24T10:54:36;12.20;99.90
40374;DHT22;26079;45.958;12.492;2023-04-24T10:59:49;12.30;99.90
40374;DHT22;26079;45.958;12.492;2023-04-24T11:02:16;12.30;99.90
40374;DHT22;26079;45.958;12.492;2023-04-24T11:04:43;12.40;99.90
40374;DHT22;26079;45.958;12.492;2023-04-24T11:07:09;12.40;99.90
40374;DHT22;26079;45.958;12.492;2023-04-24T11:09:35;12.40;99.90
40374;DHT22;26079;45.958;12.492;2023-04-24T11:12:09;12.30;99.90
40374;DHT22;26079;45.958;12.492;2023-04-24T11:15:09;12.40;99.90
40374;DHT22;26079;45.958;12.492;2023-04-24T11:17:37;12.60;99.90
40374;DHT22;26079;45.958;12.492;2023-04-24T11:20:17;12.40;99.90
40374;DHT22;26079;45.958;12.492;2023-04-24T11:22:43;12.40;99.90
40374;DHT22;26079;45.958;12.492;2023-04-24T11:25:09;12.40;99.90
40374;DHT22;26079;45.958;12.492;2023-04-24T11:27:44;12.40;99.90
40374;DHT22;26079;45.958;12.492;2023-04-24T11:30:11;12.40;99.90
40374;DHT22;26079;45.958;12.492;2023-04-24T11:32:40;12.50;99.90
40374;DHT22;26079;45.958;12.492;2023-04-24T11:35:13;12.50;99.90
40374;DHT22;26079;45.958;12.492;2023-04-24T11:37:45;12.60;99.90
40374;DHT22;26079;45.958;12.492;2023-04-24T11:40:16;12.50;99.90
40374;DHT22;26079;45.958;12.492;2023-04-24T11:42:44;12.50;99.90
40374;DHT22;26079;45.958;12.492;2023-04-24T11:47:37;12.60;99.90
40374;DHT22;26079;45.958;12.492;2023-04-24T11:50:04;12.70;99.90
40374;DHT22;26079;45.958;12.492;2023-04-24T11:52:30;12.90;99.90
40374;DHT22;26079;45.958;12.492;2023-04-24T11:54:56;12.90;99.90
40374;DHT22;26079;45.958;12.492;2023-04-24T11:57:24;13.00;99.90
40374;DHT22;26079;45.958;12.492;2023-04-24T11:59:53;13.10;99.90
40374;DHT22;26079;45.958;12.492;2023-04-24T12:02:26;13.20;99.90
40374;DHT22;26079;45.958;12.492;2023-04-24T12:04:55;13.30;99.90
40374;DHT22;26079;45.958;12.492;2023-04-24T12:07:22;13.40;99.90
40374;DHT22;26079;45.958;12.492;2023-04-24T12:09:58;13.50;99.90
40374;DHT22;26079;45.958;12.492;2023-04-24T12:12:26;13.50;99.90
40374;DHT22;26079;45.958;12.492;2023-04-24T12:14:55;13.70;99.90
40374;DHT22;26079;45.958;12.492;2023-04-24T12:17:32;13.80;99.90
40374;DHT22;26079;45.958;12.492;2023-04-24T12:19:59;13.80;99.90
40374;DHT22;26079;45.958;12.492;2023-04-24T12:22:26;13.80;99.90
40374;DHT22;26079;45.958;12.492;2023-04-24T12:27:28;14.00;99.90
40374;DHT22;26079;45.958;12.492;2023-04-24T12:29:58;14.10;99.90
40374;DHT22;26079;45.958;12.492;2023-04-24T12:32:24;14.20;99.90
40374;DHT22;26079;45.958;12.492;2023-04-24T12:34:51;14.30;99.90
40374;DHT22;26079;45.958;12.492;2023-04-24T12:37:17;14.30;99.90
40374;DHT22;26079;45.958;12.492;2023-04-24T12:40:09;14.20;99.90
40374;DHT22;26079;45.958;12.492;2023-04-24T12:42:41;14.20;99.90
40374;DHT22;26079;45.958;12.492;2023-04-24T12:45:07;14.00;99.90
40374;DHT22;26079;45.958;12.492;2023-04-24T12:47:34;13.90;99.90
40374;DHT22;26079;45.958;12.492;2023-04-24T12:50:00;14.10;99.90
40374;DHT22;26079;45.958;12.492;2023-04-24T12:52:27;14.10;99.90
40374;DHT22;26079;45.958;12.492;2023-04-24T12:54:54;14.10;99.90
40374;DHT22;26079;45.958;12.492;2023-04-24T12:57:21;14.20;99.90
40374;DHT22;26079;45.958;12.492;2023-04-24T12:59:47;14.30;99.90
40374;DHT22;26079;45.958;12.492;2023-04-24T13:02:12;14.20;99.90
40374;DHT22;26079;45.958;12.492;2023-04-24T13:04:38;14.30;99.90
40374;DHT22;26079;45.958;12.492;2023-04-24T13:07:05;14.30;99.90
40374;DHT22;26079;45.958;12.492;2023-04-24T13:09:31;14.30;99.90
40374;DHT22;26079;45.958;12.492;2023-04-24T13:11:57;14.30;99.90
40374;DHT22;26079;45.958;12.492;2023-04-24T13:14:23;14.30;99.90
40374;DHT22;26079;45.958;12.492;2023-04-24T13:16:49;14.30;99.90
40374;DHT22;26079;45.958;12.492;2023-04-24T13:19:14;14.30;99.90
40374;DHT22;26079;45.958;12.492;2023-04-24T13:21:40;14.40;99.90
40374;DHT22;26079;45.958;12.492;2023-04-24T13:24:06;14.40;99.90
40374;DHT22;26079;45.958;12.492;2023-04-24T13:26:33;14.40;99.90
40374;DHT22;26079;45.958;12.492;2023-04-24T13:28:59;14.40;99.90
40374;DHT22;26079;45.958;12.492;2023-04-24T13:31:24;14.50;99.90
40374;DHT22;26079;45.958;12.492;2023-04-24T13:33:50;14.60;99.90
40374;DHT22;26079;45.958;12.492;2023-04-24T13:36:16;14.60;99.90
40374;DHT22;26079;45.958;12.492;2023-04-24T13:38:46;14.60;99.90
40374;DHT22;26079;45.958;12.492;2023-04-24T13:41:11;14.70;99.90
40374;DHT22;26079;45.958;12.492;2023-04-24T13:43:37;14.80;99.90
40374;DHT22;26079;45.958;12.492;2023-04-24T13:46:03;14.80;99.90
40374;DHT22;26079;45.958;12.492;2023-04-24T13:48:29;14.90;99.90
40374;DHT22;26079;45.958;12.492;2023-04-24T13:50:55;14.90;99.90
40374;DHT22;26079;45.958;12.492;2023-04-24T13:53:21;15.00;99.90
40374;DHT22;26079;45.958;12.492;2023-04-24T13:55:47;14.90;99.90
40374;DHT22;26079;45.958;12.492;2023-04-24T13:58:19;14.90;99.90
40374;DHT22;26079;45.958;12.492;2023-04-24T14:00:44;14.80;99.90
40374;DHT22;26079;45.958;12.492;2023-04-24T14:03:10;14.80;98.60
40374;DHT22;26079;45.958;12.492;2023-04-24T14:05:36;14.70;97.40
40374;DHT22;26079;45.958;12.492;2023-04-24T14:08:02;14.70;97.90
40374;DHT22;26079;45.958;12.492;2023-04-24T14:10:27;14.70;97.90
40374;DHT22;26079;45.958;12.492;2023-04-24T14:12:53;14.70;96.20
40374;DHT22;26079;45.958;12.492;2023-04-24T14:15:19;14.70;99.70
40374;DHT22;26079;45.958;12.492;2023-04-24T14:17:45;14.80;99.90
40374;DHT22;26079;45.958;12.492;2023-04-24T14:20:12;15.00;99.90
40374;DHT22;26079;45.958;12.492;2023-04-24T14:22:38;15.00;97.50
40374;DHT22;26079;45.958;12.492;2023-04-24T14:25:04;15.20;99.30
40374;DHT22;26079;45.958;12.492;2023-04-24T14:27:42;15.30;99.40
40374;DHT22;26079;45.958;12.492;2023-04-24T14:30:08;15.30;96.00
40374;DHT22;26079;45.958;12.492;2023-04-24T14:32:34;15.30;97.60
40374;DHT22;26079;45.958;12.492;2023-04-24T14:34:59;15.40;97.50
40374;DHT22;26079;45.958;12.492;2023-04-24T14:37:27;15.40;96.80
40374;DHT22;26079;45.958;12.492;2023-04-24T14:39:53;15.50;96.40
40374;DHT22;26079;45.958;12.492;2023-04-24T14:42:19;15.80;98.40
40374;DHT22;26079;45.958;12.492;2023-04-24T14:44:47;15.80;96.90
40374;DHT22;26079;45.958;12.492;2023-04-24T14:47:13;15.90;95.10
40374;DHT22;26079;45.958;12.492;2023-04-24T14:49:38;16.00;96.80
40374;DHT22;26079;45.958;12.492;2023-04-24T14:52:04;16.00;98.20
40374;DHT22;26079;45.958;12.492;2023-04-24T14:54:30;16.10;97.00
40374;DHT22;26079;45.958;12.492;2023-04-24T14:56:56;16.20;97.40
40374;DHT22;26079;45.958;12.492;2023-04-24T14:59:24;16.30;94.60
40374;DHT22;26079;45.958;12.492;2023-04-24T15:01:50;16.30;95.30
40374;DHT22;26079;45.958;12.492;2023-04-24T15:04:26;16.30;96.00
40374;DHT22;26079;45.958;12.492;2023-04-24T15:06:52;16.30;97.30
40374;DHT22;26079;45.958;12.492;2023-04-24T15:09:22;16.30;94.10
40374;DHT22;26079;45.958;12.492;2023-04-24T15:11:48;16.20;94.50
40374;DHT22;26079;45.958;12.492;2023-04-24T15:14:15;16.10;94.40
40374;DHT22;26079;45.958;12.492;2023-04-24T15:16:41;16.00;95.30
40374;DHT22;26079;45.958;12.492;2023-04-24T15:19:07;16.00;95.60
40374;DHT22;26079;45.958;12.492;2023-04-24T15:21:33;16.00;95.00
40374;DHT22;26079;45.958;12.492;2023-04-24T15:23:58;15.90;94.50